sensor_id;sensor_type;location;lat;lon;timestamp;P1;durP1;ratioP1;P2;durP2;ratioP2
5923;SDS011;2987;50.884;14.818;2022-12-18T00:00:58;23.50;;;13.90;;
5923;SDS011;2987;50.884;14.818;2022-12-18T00:03:24;25.83;;;13.30;;
5923;SDS011;2987;50.884;14.818;2022-12-18T00:05:51;30.83;;;15.37;;
5923;SDS011;2987;50.884;14.818;2022-12-18T00:08:18;23.30;;;12.90;;
5923;SDS011;2987;50.884;14.818;2022-12-18T00:10:44;25.83;;;13.40;;
5923;SDS011;2987;50.884;14.818;2022-12-18T00:13:11;26.63;;;13.80;;
5923;SDS011;2987;50.884;14.818;2022-12-18T00:15:38;25.17;;;14.00;;
5923;SDS011;2987;50.884;14.818;2022-12-18T00:18:05;24.73;;;13.80;;
5923;SDS011;2987;50.884;14.818;2022-12-18T00:20:35;24.80;;;13.70;;
5923;SDS011;2987;50.884;14.818;2022-12-18T00:23:04;23.33;;;13.63;;
5923;SDS011;2987;50.884;14.818;2022-12-18T00:25:32;26.80;;;13.80;;
5923;SDS011;2987;50.884;14.818;2022-12-18T00:28:03;28.33;;;14.73;;
5923;SDS011;2987;50.884;14.818;2022-12-18T00:30:29;28.90;;;14.37;;
5923;SDS011;2987;50.884;14.818;2022-12-18T00:32:55;28.20;;;13.80;;
5923;SDS011;2987;50.884;14.818;2022-12-18T00:35:25;29.70;;;14.60;;
5923;SDS011;2987;50.884;14.818;2022-12-18T00:37:51;27.37;;;14.30;;
5923;SDS011;2987;50.884;14.818;2022-12-18T00:40:17;23.57;;;14.43;;
5923;SDS011;2987;50.884;14.818;2022-12-18T00:42:43;27.83;;;13.57;;
5923;SDS011;2987;50.884;14.818;2022-12-18T00:45:26;27.73;;;15.13;;
5923;SDS011;2987;50.884;14.818;2022-12-18T00:47:53;26.33;;;13.57;;
5923;SDS011;2987;50.884;14.818;2022-12-18T00:50:21;28.50;;;14.40;;
5923;SDS011;2987;50.884;14.818;2022-12-18T00:52:48;35.17;;;16.67;;
5923;SDS011;2987;50.884;14.818;2022-12-18T00:55:15;43.63;;;19.13;;
5923;SDS011;2987;50.884;14.818;2022-12-18T00:57:41;36.17;;;16.50;;
5923;SDS011;2987;50.884;14.818;2022-12-18T01:00:09;34.73;;;17.57;;
5923;SDS011;2987;50.884;14.818;2022-12-18T01:02:38;37.13;;;16.73;;
5923;SDS011;2987;50.884;14.818;2022-12-18T01:05:06;31.57;;;15.53;;
5923;SDS011;2987;50.884;14.818;2022-12-18T01:07:33;28.50;;;15.07;;
5923;SDS011;2987;50.884;14.818;2022-12-18T01:10:01;30.60;;;14.87;;
5923;SDS011;2987;50.884;14.818;2022-12-18T01:12:28;29.50;;;14.67;;
5923;SDS011;2987;50.884;14.818;2022-12-18T01:14:54;34.97;;;14.83;;
5923;SDS011;2987;50.884;14.818;2022-12-18T01:17:21;27.13;;;13.00;;
5923;SDS011;2987;50.884;14.818;2022-12-18T01:19:47;29.03;;;14.03;;
5923;SDS011;2987;50.884;14.818;2022-12-18T01:22:13;28.93;;;14.50;;
5923;SDS011;2987;50.884;14.818;2022-12-18T01:24:40;31.93;;;15.50;;
5923;SDS011;2987;50.884;14.818;2022-12-18T01:27:06;28.93;;;13.70;;
5923;SDS011;2987;50.884;14.818;2022-12-18T01:29:32;29.30;;;15.30;;
5923;SDS011;2987;50.884;14.818;2022-12-18T01:32:00;34.07;;;14.63;;
5923;SDS011;2987;50.884;14.818;2022-12-18T01:34:28;26.53;;;13.80;;
5923;SDS011;2987;50.884;14.818;2022-12-18T01:36:54;31.40;;;15.00;;
5923;SDS011;2987;50.884;14.818;2022-12-18T01:39:20;27.93;;;14.73;;
5923;SDS011;2987;50.884;14.818;2022-12-18T01:41:46;30.00;;;14.90;;
5923;SDS011;2987;50.884;14.818;2022-12-18T01:50:17;30.67;;;15.87;;
5923;SDS011;2987;50.884;14.818;2022-12-18T01:52:47;28.57;;;15.07;;
5923;SDS011;2987;50.884;14.818;2022-12-18T01:55:18;27.77;;;15.63;;
5923;SDS011;2987;50.884;14.818;2022-12-18T01:57:47;30.37;;;14.43;;
5923;SDS011;2987;50.884;14.818;2022-12-18T02:00:18;29.60;;;15.40;;
5923;SDS011;2987;50.884;14.818;2022-12-18T02:02:46;31.40;;;16.43;;
5923;SDS011;2987;50.884;14.818;2022-12-18T02:05:17;32.10;;;15.53;;
5923;SDS011;2987;50.884;14.818;2022-12-18T02:07:53;32.07;;;14.50;;
5923;SDS011;2987;50.884;14.818;2022-12-18T02:10:43;31.27;;;15.63;;
5923;SDS011;2987;50.884;14.818;2022-12-18T02:13:40;31.17;;;15.80;;
5923;SDS011;2987;50.884;14.818;2022-12-18T02:19:03;31.73;;;16.30;;
5923;SDS011;2987;50.884;14.818;2022-12-18T02:21:49;35.90;;;17.40;;
5923;SDS011;2987;50.884;14.818;2022-12-18T02:27:01;31.47;;;15.23;;
5923;SDS011;2987;50.884;14.818;2022-12-18T02:29:48;34.73;;;16.57;;
5923;SDS011;2987;50.884;14.818;2022-12-18T02:32:19;32.67;;;17.83;;
5923;SDS011;2987;50.884;14.818;2022-12-18T02:34:51;34.13;;;16.97;;
5923;SDS011;2987;50.884;14.818;2022-12-18T02:37:22;30.47;;;15.70;;
5923;SDS011;2987;50.884;14.818;2022-12-18T02:39:52;29.97;;;14.30;;
5923;SDS011;2987;50.884;14.818;2022-12-18T02:42:20;28.33;;;13.60;;
5923;SDS011;2987;50.884;14.818;2022-12-18T02:44:48;31.33;;;14.07;;
5923;SDS011;2987;50.884;14.818;2022-12-18T02:47:20;29.53;;;14.50;;
5923;SDS011;2987;50.884;14.818;2022-12-18T02:49:54;33.60;;;16.93;;
5923;SDS011;2987;50.884;14.818;2022-12-18T02:52:38;25.70;;;14.13;;
5923;SDS011;2987;50.884;14.818;2022-12-18T02:55:14;30.77;;;14.33;;
5923;SDS011;2987;50.884;14.818;2022-12-18T02:57:56;27.50;;;14.60;;
5923;SDS011;2987;50.884;14.818;2022-12-18T03:00:39;27.83;;;13.70;;
5923;SDS011;2987;50.884;14.818;2022-12-18T03:03:23;27.20;;;14.63;;
5923;SDS011;2987;50.884;14.818;2022-12-18T03:06:17;27.13;;;15.40;;
5923;SDS011;2987;50.884;14.818;2022-12-18T03:08:49;24.07;;;13.60;;
5923;SDS011;2987;50.884;14.818;2022-12-18T03:11:23;23.17;;;12.53;;
5923;SDS011;2987;50.884;14.818;2022-12-18T03:14:15;23.57;;;11.43;;
5923;SDS011;2987;50.884;14.818;2022-12-18T03:16:46;25.80;;;12.13;;
5923;SDS011;2987;50.884;14.818;2022-12-18T03:19:15;23.47;;;12.60;;
5923;SDS011;2987;50.884;14.818;2022-12-18T03:21:49;24.83;;;11.83;;
5923;SDS011;2987;50.884;14.818;2022-12-18T03:24:19;30.87;;;14.13;;
5923;SDS011;2987;50.884;14.818;2022-12-18T03:26:50;23.30;;;12.70;;
5923;SDS011;2987;50.884;14.818;2022-12-18T03:29:21;22.77;;;12.00;;
5923;SDS011;2987;50.884;14.818;2022-12-18T03:31:54;24.77;;;12.67;;
5923;SDS011;2987;50.884;14.818;2022-12-18T03:34:30;29.00;;;14.97;;
5923;SDS011;2987;50.884;14.818;2022-12-18T03:37:02;25.53;;;15.10;;
5923;SDS011;2987;50.884;14.818;2022-12-18T03:39:31;30.77;;;15.33;;
5923;SDS011;2987;50.884;14.818;2022-12-18T03:42:05;35.03;;;17.03;;
5923;SDS011;2987;50.884;14.818;2022-12-18T03:50:27;38.87;;;18.37;;
5923;SDS011;2987;50.884;14.818;2022-12-18T03:53:08;33.40;;;15.70;;
5923;SDS011;2987;50.884;14.818;2022-12-18T03:58:14;33.03;;;15.33;;
5923;SDS011;2987;50.884;14.818;2022-12-18T04:00:55;27.00;;;13.17;;
5923;SDS011;2987;50.884;14.818;2022-12-18T04:03:24;30.80;;;14.70;;
5923;SDS011;2987;50.884;14.818;2022-12-18T04:05:51;31.33;;;15.23;;
5923;SDS011;2987;50.884;14.818;2022-12-18T04:08:24;38.13;;;17.43;;
5923;SDS011;2987;50.884;14.818;2022-12-18T04:11:00;37.10;;;16.00;;
5923;SDS011;2987;50.884;14.818;2022-12-18T04:13:28;35.03;;;15.27;;
5923;SDS011;2987;50.884;14.818;2022-12-18T04:15:59;31.70;;;16.27;;
5923;SDS011;2987;50.884;14.818;2022-12-18T04:18:26;32.33;;;16.10;;
5923;SDS011;2987;50.884;14.818;2022-12-18T04:20:53;34.37;;;15.03;;
5923;SDS011;2987;50.884;14.818;2022-12-18T04:23:19;32.30;;;15.10;;
5923;SDS011;2987;50.884;14.818;2022-12-18T04:25:47;32.60;;;15.60;;
5923;SDS011;2987;50.884;14.818;2022-12-18T04:28:19;31.80;;;14.90;;
5923;SDS011;2987;50.884;14.818;2022-12-18T04:30:47;29.43;;;13.90;;
5923;SDS011;2987;50.884;14.818;2022-12-18T04:33:14;32.70;;;15.27;;
5923;SDS011;2987;50.884;14.818;2022-12-18T04:35:42;29.90;;;14.60;;
5923;SDS011;2987;50.884;14.818;2022-12-18T04:38:08;31.37;;;13.87;;
5923;SDS011;2987;50.884;14.818;2022-12-18T04:40:36;31.00;;;15.27;;
5923;SDS011;2987;50.884;14.818;2022-12-18T04:43:08;34.10;;;15.53;;
5923;SDS011;2987;50.884;14.818;2022-12-18T04:45:34;31.53;;;15.83;;
5923;SDS011;2987;50.884;14.818;2022-12-18T04:48:01;32.43;;;15.20;;
5923;SDS011;2987;50.884;14.818;2022-12-18T04:50:28;34.73;;;15.57;;
5923;SDS011;2987;50.884;14.818;2022-12-18T04:52:54;31.10;;;14.47;;
5923;SDS011;2987;50.884;14.818;2022-12-18T04:55:20;35.13;;;16.47;;
5923;SDS011;2987;50.884;14.818;2022-12-18T04:57:46;37.60;;;16.23;;
5923;SDS011;2987;50.884;14.818;2022-12-18T05:00:12;33.57;;;14.37;;
5923;SDS011;2987;50.884;14.818;2022-12-18T05:02:39;36.87;;;15.63;;
5923;SDS011;2987;50.884;14.818;2022-12-18T05:05:05;33.20;;;15.43;;
5923;SDS011;2987;50.884;14.818;2022-12-18T05:07:33;32.20;;;14.97;;
5923;SDS011;2987;50.884;14.818;2022-12-18T05:09:59;32.73;;;15.30;;
5923;SDS011;2987;50.884;14.818;2022-12-18T05:12:25;34.83;;;14.60;;
5923;SDS011;2987;50.884;14.818;2022-12-18T05:14:51;30.17;;;14.67;;
5923;SDS011;2987;50.884;14.818;2022-12-18T05:17:17;30.00;;;13.90;;
5923;SDS011;2987;50.884;14.818;2022-12-18T05:19:43;36.73;;;16.57;;
5923;SDS011;2987;50.884;14.818;2022-12-18T05:22:09;33.97;;;15.47;;
5923;SDS011;2987;50.884;14.818;2022-12-18T05:24:35;32.53;;;15.23;;
5923;SDS011;2987;50.884;14.818;2022-12-18T05:27:01;35.50;;;16.47;;
5923;SDS011;2987;50.884;14.818;2022-12-18T05:29:27;31.00;;;14.03;;
5923;SDS011;2987;50.884;14.818;2022-12-18T05:31:53;30.60;;;15.37;;
5923;SDS011;2987;50.884;14.818;2022-12-18T05:34:19;31.33;;;14.80;;
5923;SDS011;2987;50.884;14.818;2022-12-18T05:36:45;27.20;;;14.00;;
5923;SDS011;2987;50.884;14.818;2022-12-18T05:39:12;36.73;;;15.37;;
5923;SDS011;2987;50.884;14.818;2022-12-18T05:41:38;26.87;;;14.03;;
5923;SDS011;2987;50.884;14.818;2022-12-18T05:44:04;30.20;;;14.17;;
5923;SDS011;2987;50.884;14.818;2022-12-18T05:46:30;34.83;;;15.40;;
5923;SDS011;2987;50.884;14.818;2022-12-18T05:48:59;30.77;;;14.33;;
5923;SDS011;2987;50.884;14.818;2022-12-18T05:51:26;27.87;;;13.37;;
5923;SDS011;2987;50.884;14.818;2022-12-18T05:53:53;30.67;;;14.07;;
5923;SDS011;2987;50.884;14.818;2022-12-18T05:56:20;29.20;;;13.53;;
5923;SDS011;2987;50.884;14.818;2022-12-18T05:58:51;29.80;;;13.20;;
5923;SDS011;2987;50.884;14.818;2022-12-18T06:01:19;27.90;;;13.93;;
5923;SDS011;2987;50.884;14.818;2022-12-18T06:03:48;30.13;;;14.10;;
5923;SDS011;2987;50.884;14.818;2022-12-18T06:06:16;28.67;;;14.40;;
5923;SDS011;2987;50.884;14.818;2022-12-18T06:08:48;29.23;;;13.20;;
5923;SDS011;2987;50.884;14.818;2022-12-18T06:11:16;31.10;;;14.60;;
5923;SDS011;2987;50.884;14.818;2022-12-18T06:13:45;31.27;;;14.23;;
5923;SDS011;2987;50.884;14.818;2022-12-18T06:16:11;32.20;;;13.60;;
5923;SDS011;2987;50.884;14.818;2022-12-18T06:18:38;31.97;;;14.03;;
5923;SDS011;2987;50.884;14.818;2022-12-18T06:21:04;27.47;;;13.87;;
5923;SDS011;2987;50.884;14.818;2022-12-18T06:23:30;33.07;;;13.00;;
5923;SDS011;2987;50.884;14.818;2022-12-18T06:25:56;31.73;;;14.40;;
5923;SDS011;2987;50.884;14.818;2022-12-18T06:28:22;31.07;;;13.83;;
5923;SDS011;2987;50.884;14.818;2022-12-18T06:30:48;33.17;;;14.53;;
5923;SDS011;2987;50.884;14.818;2022-12-18T06:33:16;32.90;;;14.10;;
5923;SDS011;2987;50.884;14.818;2022-12-18T06:35:42;30.00;;;13.20;;
5923;SDS011;2987;50.884;14.818;2022-12-18T06:38:08;28.63;;;13.53;;
5923;SDS011;2987;50.884;14.818;2022-12-18T06:40:34;30.43;;;13.43;;
5923;SDS011;2987;50.884;14.818;2022-12-18T06:43:04;32.13;;;13.50;;
5923;SDS011;2987;50.884;14.818;2022-12-18T06:45:31;28.00;;;14.00;;
5923;SDS011;2987;50.884;14.818;2022-12-18T06:47:57;34.37;;;13.97;;
5923;SDS011;2987;50.884;14.818;2022-12-18T06:50:23;31.50;;;13.30;;
5923;SDS011;2987;50.884;14.818;2022-12-18T06:52:49;36.27;;;15.53;;
5923;SDS011;2987;50.884;14.818;2022-12-18T06:55:15;34.70;;;13.90;;
5923;SDS011;2987;50.884;14.818;2022-12-18T06:57:41;34.20;;;15.13;;
5923;SDS011;2987;50.884;14.818;2022-12-18T07:00:07;31.27;;;13.97;;
5923;SDS011;2987;50.884;14.818;2022-12-18T07:02:34;37.30;;;14.17;;
5923;SDS011;2987;50.884;14.818;2022-12-18T07:05:01;35.83;;;14.97;;
5923;SDS011;2987;50.884;14.818;2022-12-18T07:07:28;35.50;;;15.53;;
5923;SDS011;2987;50.884;14.818;2022-12-18T07:09:54;32.90;;;15.33;;
5923;SDS011;2987;50.884;14.818;2022-12-18T07:12:19;39.17;;;17.37;;
5923;SDS011;2987;50.884;14.818;2022-12-18T07:14:45;37.60;;;15.70;;
5923;SDS011;2987;50.884;14.818;2022-12-18T07:17:12;38.27;;;17.10;;
5923;SDS011;2987;50.884;14.818;2022-12-18T07:19:38;43.47;;;17.50;;
5923;SDS011;2987;50.884;14.818;2022-12-18T07:22:04;45.30;;;18.13;;
5923;SDS011;2987;50.884;14.818;2022-12-18T07:24:30;34.17;;;16.27;;
5923;SDS011;2987;50.884;14.818;2022-12-18T07:26:59;42.00;;;17.70;;
5923;SDS011;2987;50.884;14.818;2022-12-18T07:29:25;38.90;;;16.03;;
5923;SDS011;2987;50.884;14.818;2022-12-18T07:31:51;40.00;;;17.77;;
5923;SDS011;2987;50.884;14.818;2022-12-18T07:34:17;45.57;;;17.60;;
5923;SDS011;2987;50.884;14.818;2022-12-18T07:36:43;44.30;;;18.73;;
5923;SDS011;2987;50.884;14.818;2022-12-18T07:39:10;46.90;;;19.63;;
5923;SDS011;2987;50.884;14.818;2022-12-18T07:41:37;46.43;;;17.33;;
5923;SDS011;2987;50.884;14.818;2022-12-18T07:44:09;45.30;;;18.60;;
5923;SDS011;2987;50.884;14.818;2022-12-18T07:46:36;45.77;;;17.77;;
5923;SDS011;2987;50.884;14.818;2022-12-18T07:49:02;45.27;;;18.33;;
5923;SDS011;2987;50.884;14.818;2022-12-18T07:51:28;42.77;;;18.50;;
5923;SDS011;2987;50.884;14.818;2022-12-18T07:53:54;39.70;;;16.93;;
5923;SDS011;2987;50.884;14.818;2022-12-18T07:56:20;50.23;;;21.57;;
5923;SDS011;2987;50.884;14.818;2022-12-18T07:58:46;45.43;;;17.97;;
5923;SDS011;2987;50.884;14.818;2022-12-18T08:01:12;42.27;;;19.30;;
5923;SDS011;2987;50.884;14.818;2022-12-18T08:03:42;42.40;;;18.47;;
5923;SDS011;2987;50.884;14.818;2022-12-18T08:06:08;42.57;;;19.07;;
5923;SDS011;2987;50.884;14.818;2022-12-18T08:08:35;40.27;;;17.70;;
5923;SDS011;2987;50.884;14.818;2022-12-18T08:11:02;40.63;;;17.83;;
5923;SDS011;2987;50.884;14.818;2022-12-18T08:13:28;40.43;;;17.33;;
5923;SDS011;2987;50.884;14.818;2022-12-18T08:16:02;41.50;;;17.63;;
5923;SDS011;2987;50.884;14.818;2022-12-18T08:18:34;41.50;;;18.17;;
5923;SDS011;2987;50.884;14.818;2022-12-18T08:21:09;41.57;;;18.23;;
5923;SDS011;2987;50.884;14.818;2022-12-18T08:23:41;45.90;;;18.37;;
5923;SDS011;2987;50.884;14.818;2022-12-18T08:28:59;38.90;;;17.53;;
5923;SDS011;2987;50.884;14.818;2022-12-18T08:31:26;45.37;;;19.13;;
5923;SDS011;2987;50.884;14.818;2022-12-18T08:33:53;40.03;;;18.83;;
5923;SDS011;2987;50.884;14.818;2022-12-18T08:36:20;37.43;;;17.53;;
5923;SDS011;2987;50.884;14.818;2022-12-18T08:38:48;41.33;;;18.70;;
5923;SDS011;2987;50.884;14.818;2022-12-18T08:41:15;40.77;;;18.20;;
5923;SDS011;2987;50.884;14.818;2022-12-18T08:43:42;41.70;;;17.97;;
5923;SDS011;2987;50.884;14.818;2022-12-18T08:46:32;49.70;;;20.07;;
5923;SDS011;2987;50.884;14.818;2022-12-18T08:49:00;41.60;;;19.17;;
5923;SDS011;2987;50.884;14.818;2022-12-18T08:51:26;37.70;;;17.10;;
5923;SDS011;2987;50.884;14.818;2022-12-18T08:53:52;38.87;;;17.77;;
5923;SDS011;2987;50.884;14.818;2022-12-18T08:56:18;40.73;;;18.10;;
5923;SDS011;2987;50.884;14.818;2022-12-18T08:58:44;38.57;;;16.93;;
5923;SDS011;2987;50.884;14.818;2022-12-18T09:01:11;38.97;;;17.30;;
5923;SDS011;2987;50.884;14.818;2022-12-18T09:03:39;39.13;;;18.03;;
5923;SDS011;2987;50.884;14.818;2022-12-18T09:06:05;38.10;;;18.07;;
5923;SDS011;2987;50.884;14.818;2022-12-18T09:08:32;40.73;;;18.17;;
5923;SDS011;2987;50.884;14.818;2022-12-18T09:10:59;40.43;;;18.50;;
5923;SDS011;2987;50.884;14.818;2022-12-18T09:13:25;51.03;;;21.33;;
5923;SDS011;2987;50.884;14.818;2022-12-18T09:15:52;47.50;;;20.80;;
5923;SDS011;2987;50.884;14.818;2022-12-18T09:18:21;42.60;;;20.10;;
5923;SDS011;2987;50.884;14.818;2022-12-18T09:20:48;45.80;;;19.90;;
5923;SDS011;2987;50.884;14.818;2022-12-18T09:23:17;49.87;;;21.73;;
5923;SDS011;2987;50.884;14.818;2022-12-18T09:25:44;47.77;;;22.00;;
5923;SDS011;2987;50.884;14.818;2022-12-18T09:28:12;58.07;;;25.27;;
5923;SDS011;2987;50.884;14.818;2022-12-18T09:30:41;45.17;;;20.83;;
5923;SDS011;2987;50.884;14.818;2022-12-18T09:33:09;44.67;;;20.63;;
5923;SDS011;2987;50.884;14.818;2022-12-18T09:35:36;56.90;;;24.47;;
5923;SDS011;2987;50.884;14.818;2022-12-18T09:38:04;43.40;;;21.00;;
5923;SDS011;2987;50.884;14.818;2022-12-18T09:40:33;43.87;;;20.17;;
5923;SDS011;2987;50.884;14.818;2022-12-18T09:43:05;43.90;;;20.90;;
5923;SDS011;2987;50.884;14.818;2022-12-18T09:45:42;40.13;;;19.07;;
5923;SDS011;2987;50.884;14.818;2022-12-18T09:51:02;40.00;;;18.67;;
5923;SDS011;2987;50.884;14.818;2022-12-18T09:53:37;44.00;;;19.37;;
5923;SDS011;2987;50.884;14.818;2022-12-18T10:01:11;44.13;;;19.57;;
5923;SDS011;2987;50.884;14.818;2022-12-18T10:03:44;41.23;;;19.70;;
5923;SDS011;2987;50.884;14.818;2022-12-18T10:28:07;36.67;;;16.60;;
5923;SDS011;2987;50.884;14.818;2022-12-18T10:33:05;34.93;;;16.60;;
5923;SDS011;2987;50.884;14.818;2022-12-18T10:35:35;29.00;;;14.93;;
5923;SDS011;2987;50.884;14.818;2022-12-18T10:40:49;38.53;;;17.23;;
5923;SDS011;2987;50.884;14.818;2022-12-18T10:43:20;42.27;;;17.70;;
5923;SDS011;2987;50.884;14.818;2022-12-18T10:51:21;31.87;;;17.20;;
5923;SDS011;2987;50.884;14.818;2022-12-18T10:56:26;39.87;;;17.00;;
5923;SDS011;2987;50.884;14.818;2022-12-18T10:58:56;39.50;;;17.80;;
5923;SDS011;2987;50.884;14.818;2022-12-18T11:01:25;38.77;;;17.70;;
5923;SDS011;2987;50.884;14.818;2022-12-18T11:04:00;40.53;;;17.50;;
5923;SDS011;2987;50.884;14.818;2022-12-18T11:06:33;38.80;;;17.93;;
5923;SDS011;2987;50.884;14.818;2022-12-18T11:09:03;39.97;;;17.80;;
5923;SDS011;2987;50.884;14.818;2022-12-18T11:11:47;38.20;;;18.33;;
5923;SDS011;2987;50.884;14.818;2022-12-18T11:14:21;39.60;;;18.00;;
5923;SDS011;2987;50.884;14.818;2022-12-18T11:16:50;36.90;;;17.40;;
5923;SDS011;2987;50.884;14.818;2022-12-18T11:19:34;37.17;;;17.57;;
5923;SDS011;2987;50.884;14.818;2022-12-18T11:22:17;33.63;;;16.60;;
5923;SDS011;2987;50.884;14.818;2022-12-18T11:24:56;35.03;;;17.40;;
5923;SDS011;2987;50.884;14.818;2022-12-18T11:27:25;39.80;;;17.97;;
5923;SDS011;2987;50.884;14.818;2022-12-18T11:30:06;40.53;;;18.53;;
5923;SDS011;2987;50.884;14.818;2022-12-18T11:32:37;42.97;;;19.87;;
5923;SDS011;2987;50.884;14.818;2022-12-18T11:35:16;43.97;;;18.10;;
5923;SDS011;2987;50.884;14.818;2022-12-18T11:37:47;38.53;;;17.43;;
5923;SDS011;2987;50.884;14.818;2022-12-18T11:40:20;34.80;;;16.63;;
5923;SDS011;2987;50.884;14.818;2022-12-18T11:42:58;37.23;;;16.80;;
5923;SDS011;2987;50.884;14.818;2022-12-18T11:45:33;37.23;;;17.13;;
5923;SDS011;2987;50.884;14.818;2022-12-18T11:48:09;35.50;;;16.57;;
5923;SDS011;2987;50.884;14.818;2022-12-18T11:50:50;41.10;;;17.60;;
5923;SDS011;2987;50.884;14.818;2022-12-18T11:53:18;35.80;;;16.63;;
5923;SDS011;2987;50.884;14.818;2022-12-18T11:55:50;38.13;;;17.33;;
5923;SDS011;2987;50.884;14.818;2022-12-18T12:04:12;38.90;;;19.07;;
5923;SDS011;2987;50.884;14.818;2022-12-18T12:10:16;40.07;;;17.50;;
5923;SDS011;2987;50.884;14.818;2022-12-18T12:28:57;42.70;;;19.43;;
5923;SDS011;2987;50.884;14.818;2022-12-18T12:31:33;42.50;;;18.27;;
5923;SDS011;2987;50.884;14.818;2022-12-18T12:39:51;41.33;;;18.90;;
5923;SDS011;2987;50.884;14.818;2022-12-18T12:42:26;43.70;;;18.23;;
5923;SDS011;2987;50.884;14.818;2022-12-18T12:50:15;49.20;;;20.70;;
5923;SDS011;2987;50.884;14.818;2022-12-18T12:52:45;43.97;;;19.67;;
5923;SDS011;2987;50.884;14.818;2022-12-18T12:55:22;44.73;;;18.87;;
5923;SDS011;2987;50.884;14.818;2022-12-18T12:57:54;47.33;;;19.80;;
5923;SDS011;2987;50.884;14.818;2022-12-18T13:00:43;44.90;;;19.13;;
5923;SDS011;2987;50.884;14.818;2022-12-18T13:06:12;47.10;;;20.60;;
5923;SDS011;2987;50.884;14.818;2022-12-18T13:09:01;46.67;;;20.30;;
5923;SDS011;2987;50.884;14.818;2022-12-18T13:17:17;45.73;;;19.97;;
5923;SDS011;2987;50.884;14.818;2022-12-18T13:22:42;42.37;;;18.63;;
5923;SDS011;2987;50.884;14.818;2022-12-18T13:25:27;42.20;;;19.40;;
5923;SDS011;2987;50.884;14.818;2022-12-18T13:47:03;54.80;;;19.63;;
5923;SDS011;2987;50.884;14.818;2022-12-18T13:52:16;57.53;;;21.33;;
5923;SDS011;2987;50.884;14.818;2022-12-18T13:54:47;44.50;;;20.33;;
5923;SDS011;2987;50.884;14.818;2022-12-18T13:57:34;42.70;;;18.33;;
5923;SDS011;2987;50.884;14.818;2022-12-18T14:00:24;46.07;;;20.37;;
5923;SDS011;2987;50.884;14.818;2022-12-18T14:02:53;47.83;;;20.23;;
5923;SDS011;2987;50.884;14.818;2022-12-18T14:05:25;45.23;;;20.23;;
5923;SDS011;2987;50.884;14.818;2022-12-18T14:07:55;46.93;;;18.80;;
5923;SDS011;2987;50.884;14.818;2022-12-18T14:10:42;46.40;;;18.17;;
5923;SDS011;2987;50.884;14.818;2022-12-18T14:13:28;41.67;;;17.70;;
5923;SDS011;2987;50.884;14.818;2022-12-18T14:16:00;42.10;;;17.83;;
5923;SDS011;2987;50.884;14.818;2022-12-18T14:18:36;49.77;;;18.40;;
5923;SDS011;2987;50.884;14.818;2022-12-18T14:21:17;39.37;;;18.37;;
5923;SDS011;2987;50.884;14.818;2022-12-18T14:23:46;43.20;;;18.70;;
5923;SDS011;2987;50.884;14.818;2022-12-18T14:26:28;37.17;;;16.87;;
5923;SDS011;2987;50.884;14.818;2022-12-18T14:28:57;44.67;;;18.00;;
5923;SDS011;2987;50.884;14.818;2022-12-18T14:31:28;33.83;;;15.97;;
5923;SDS011;2987;50.884;14.818;2022-12-18T14:33:55;34.63;;;16.90;;
5923;SDS011;2987;50.884;14.818;2022-12-18T14:36:23;40.13;;;17.53;;
5923;SDS011;2987;50.884;14.818;2022-12-18T14:38:51;37.50;;;17.77;;
5923;SDS011;2987;50.884;14.818;2022-12-18T14:41:20;39.47;;;18.30;;
5923;SDS011;2987;50.884;14.818;2022-12-18T14:43:48;41.70;;;17.73;;
5923;SDS011;2987;50.884;14.818;2022-12-18T14:46:34;38.13;;;18.67;;
5923;SDS011;2987;50.884;14.818;2022-12-18T14:49:03;41.63;;;17.90;;
5923;SDS011;2987;50.884;14.818;2022-12-18T14:51:47;39.33;;;15.37;;
5923;SDS011;2987;50.884;14.818;2022-12-18T14:54:17;36.07;;;17.73;;
5923;SDS011;2987;50.884;14.818;2022-12-18T14:56:46;38.43;;;16.70;;
5923;SDS011;2987;50.884;14.818;2022-12-18T14:59:16;33.93;;;16.27;;
5923;SDS011;2987;50.884;14.818;2022-12-18T15:01:48;36.60;;;15.80;;
5923;SDS011;2987;50.884;14.818;2022-12-18T15:04:31;38.17;;;18.00;;
5923;SDS011;2987;50.884;14.818;2022-12-18T15:07:05;39.80;;;16.67;;
5923;SDS011;2987;50.884;14.818;2022-12-18T15:15:03;42.47;;;18.00;;
5923;SDS011;2987;50.884;14.818;2022-12-18T15:17:30;38.83;;;16.93;;
5923;SDS011;2987;50.884;14.818;2022-12-18T15:22:27;39.70;;;16.87;;
5923;SDS011;2987;50.884;14.818;2022-12-18T15:24:56;39.50;;;18.23;;
5923;SDS011;2987;50.884;14.818;2022-12-18T15:27:25;40.67;;;17.63;;
5923;SDS011;2987;50.884;14.818;2022-12-18T15:30:16;45.97;;;18.03;;
5923;SDS011;2987;50.884;14.818;2022-12-18T15:32:44;40.67;;;16.77;;
5923;SDS011;2987;50.884;14.818;2022-12-18T15:35:16;44.27;;;17.47;;
5923;SDS011;2987;50.884;14.818;2022-12-18T15:37:44;45.00;;;16.80;;
5923;SDS011;2987;50.884;14.818;2022-12-18T15:40:15;37.10;;;17.70;;
5923;SDS011;2987;50.884;14.818;2022-12-18T15:42:43;38.53;;;16.63;;
5923;SDS011;2987;50.884;14.818;2022-12-18T15:45:29;37.93;;;15.63;;
5923;SDS011;2987;50.884;14.818;2022-12-18T15:47:56;43.87;;;17.57;;
5923;SDS011;2987;50.884;14.818;2022-12-18T15:50:25;44.10;;;18.77;;
5923;SDS011;2987;50.884;14.818;2022-12-18T15:52:52;43.97;;;18.93;;
5923;SDS011;2987;50.884;14.818;2022-12-18T15:55:20;44.70;;;18.37;;
5923;SDS011;2987;50.884;14.818;2022-12-18T15:58:09;49.17;;;19.50;;
5923;SDS011;2987;50.884;14.818;2022-12-18T16:00:36;45.33;;;16.60;;
5923;SDS011;2987;50.884;14.818;2022-12-18T16:03:05;43.50;;;18.93;;
5923;SDS011;2987;50.884;14.818;2022-12-18T16:05:31;46.63;;;19.47;;
5923;SDS011;2987;50.884;14.818;2022-12-18T16:07:58;44.93;;;18.93;;
5923;SDS011;2987;50.884;14.818;2022-12-18T16:10:24;41.60;;;18.37;;
5923;SDS011;2987;50.884;14.818;2022-12-18T16:12:55;47.20;;;18.03;;
5923;SDS011;2987;50.884;14.818;2022-12-18T16:15:21;43.60;;;18.53;;
5923;SDS011;2987;50.884;14.818;2022-12-18T16:17:47;44.30;;;18.80;;
5923;SDS011;2987;50.884;14.818;2022-12-18T16:20:15;42.00;;;17.10;;
5923;SDS011;2987;50.884;14.818;2022-12-18T16:22:43;47.70;;;20.00;;
5923;SDS011;2987;50.884;14.818;2022-12-18T16:25:16;45.00;;;18.33;;
5923;SDS011;2987;50.884;14.818;2022-12-18T16:27:47;41.23;;;17.43;;
5923;SDS011;2987;50.884;14.818;2022-12-18T16:30:14;41.60;;;17.17;;
5923;SDS011;2987;50.884;14.818;2022-12-18T16:32:42;40.00;;;16.80;;
5923;SDS011;2987;50.884;14.818;2022-12-18T16:35:10;41.03;;;16.90;;
5923;SDS011;2987;50.884;14.818;2022-12-18T16:37:38;40.77;;;16.37;;
5923;SDS011;2987;50.884;14.818;2022-12-18T16:40:07;37.00;;;16.17;;
5923;SDS011;2987;50.884;14.818;2022-12-18T16:42:36;38.77;;;16.43;;
5923;SDS011;2987;50.884;14.818;2022-12-18T16:45:03;35.60;;;16.60;;
5923;SDS011;2987;50.884;14.818;2022-12-18T16:47:30;43.83;;;17.03;;
5923;SDS011;2987;50.884;14.818;2022-12-18T16:49:56;40.60;;;17.53;;
5923;SDS011;2987;50.884;14.818;2022-12-18T16:52:26;40.73;;;17.60;;
5923;SDS011;2987;50.884;14.818;2022-12-18T16:54:53;44.37;;;19.00;;
5923;SDS011;2987;50.884;14.818;2022-12-18T16:57:20;44.13;;;18.57;;
5923;SDS011;2987;50.884;14.818;2022-12-18T16:59:46;44.40;;;19.87;;
5923;SDS011;2987;50.884;14.818;2022-12-18T17:02:15;44.93;;;20.40;;
5923;SDS011;2987;50.884;14.818;2022-12-18T17:04:44;40.23;;;18.13;;
5923;SDS011;2987;50.884;14.818;2022-12-18T17:07:11;40.70;;;17.90;;
5923;SDS011;2987;50.884;14.818;2022-12-18T17:09:38;39.77;;;18.17;;
5923;SDS011;2987;50.884;14.818;2022-12-18T17:12:05;44.73;;;19.63;;
5923;SDS011;2987;50.884;14.818;2022-12-18T17:14:32;51.27;;;20.77;;